createdAt,value
2022-11-22T00:00:43.563Z,6.66
2022-11-22T00:03:13.340Z,6.93
2022-11-22T00:05:43.020Z,6.67
2022-11-22T00:08:12.821Z,6.26
2022-11-22T00:10:42.859Z,6.11
2022-11-22T00:13:13.205Z,5.34
2022-11-22T00:15:44.680Z,6.11
2022-11-22T00:18:15.600Z,6.30
2022-11-22T00:20:45.881Z,6.32
2022-11-22T00:23:16.716Z,6.73
2022-11-22T00:25:48.145Z,6.46
2022-11-22T00:28:17.506Z,6.25
2022-11-22T00:30:49.064Z,6.58
2022-11-22T00:33:18.725Z,6.52
2022-11-22T00:35:48.845Z,6.95
2022-11-22T00:38:18.904Z,7.09
2022-11-22T00:40:48.720Z,6.93
2022-11-22T00:43:18.869Z,6.80
2022-11-22T00:45:50.902Z,6.82
2022-11-22T00:48:20.763Z,7.00
2022-11-22T00:50:51.350Z,6.95
2022-11-22T00:53:21.256Z,6.98
2022-11-22T00:55:50.746Z,6.55
2022-11-22T00:58:19.982Z,6.64
2022-11-22T01:00:56.273Z,6.80
2022-11-22T01:03:26.770Z,6.58
2022-11-22T01:05:56.358Z,6.43
2022-11-22T01:08:25.900Z,6.22
2022-11-22T01:10:59.855Z,6.26
2022-11-22T01:13:34.446Z,6.64
2022-11-22T01:16:08.280Z,6.30
2022-11-22T01:18:38.139Z,6.15
2022-11-22T01:21:07.884Z,6.45
2022-11-22T01:23:37.420Z,6.54
2022-11-22T01:26:09.265Z,6.28
2022-11-22T01:28:39.125Z,6.47
2022-11-22T01:31:10.359Z,6.59
2022-11-22T01:33:39.844Z,6.03
2022-11-22T01:36:09.761Z,6.52
2022-11-22T01:38:39.533Z,6.55
2022-11-22T01:41:09.094Z,6.93
2022-11-22T01:43:39.011Z,6.28
2022-11-22T01:46:11.830Z,6.38
2022-11-22T01:48:48.907Z,5.72
2022-11-22T01:51:22.942Z,5.79
2022-11-22T01:53:53.267Z,5.71
2022-11-22T01:56:23.096Z,5.11
2022-11-22T01:58:56.894Z,5.68
2022-11-22T02:01:29.864Z,4.91
2022-11-22T02:04:00.630Z,5.36
2022-11-22T02:06:37.954Z,5.50
2022-11-22T02:09:12.021Z,5.66
2022-11-22T02:11:45.320Z,5.63
2022-11-22T02:14:17.160Z,5.48
2022-11-22T02:16:50.613Z,6.00
2022-11-22T02:19:25.865Z,6.05
2022-11-22T02:22:00.544Z,6.31
2022-11-22T02:24:33.851Z,6.37
2022-11-22T02:27:05.417Z,5.97
2022-11-22T02:29:36.050Z,6.28
2022-11-22T02:32:05.598Z,6.65
2022-11-22T02:34:44.739Z,6.11
2022-11-22T02:37:17.829Z,6.53
2022-11-22T02:39:48.954Z,6.42
2022-11-22T02:42:20.304Z,6.98
2022-11-22T02:44:50.556Z,6.68
2022-11-22T02:47:20.710Z,6.99
2022-11-22T02:49:50.699Z,6.83
2022-11-22T02:52:21.216Z,6.84
2022-11-22T02:54:50.860Z,6.28
2022-11-22T02:57:23.246Z,6.66
2022-11-22T03:00:18.191Z,6.96
2022-11-22T03:02:47.910Z,6.17
2022-11-22T03:05:17.825Z,6.58
2022-11-22T03:07:47.690Z,6.52
2022-11-22T03:10:17.175Z,6.62
2022-11-22T03:12:48.915Z,5.97
2022-11-22T03:15:18.653Z,6.16
2022-11-22T03:17:48.379Z,6.78
2022-11-22T03:20:18.040Z,6.83
2022-11-22T03:22:48.090Z,6.87
2022-11-22T03:25:18.351Z,7.11
2022-11-22T03:27:49.570Z,6.79
2022-11-22T03:30:19.306Z,6.60
2022-11-22T03:32:49.040Z,6.90
2022-11-22T03:35:18.972Z,7.01
2022-11-22T03:37:48.558Z,6.61
2022-11-22T03:40:18.200Z,6.89
2022-11-22T03:42:49.278Z,6.89
2022-11-22T03:45:19.035Z,6.93
2022-11-22T03:47:48.206Z,7.18
2022-11-22T03:50:17.896Z,7.24
2022-11-22T03:52:47.630Z,6.96
2022-11-22T03:55:17.990Z,7.00
2022-11-22T03:57:49.680Z,6.87
2022-11-22T04:00:19.890Z,6.60
2022-11-22T04:02:50.255Z,6.28
2022-11-22T04:05:19.922Z,6.24
2022-11-22T04:07:55.952Z,5.45
2022-11-22T04:10:27.222Z,5.40
2022-11-22T04:13:01.631Z,5.64
2022-11-22T04:15:30.920Z,5.28
2022-11-22T04:18:01.196Z,6.07
2022-11-22T04:20:49.447Z,5.36
2022-11-22T04:23:21.565Z,5.52
2022-11-22T04:25:51.982Z,5.65
2022-11-22T04:28:35.322Z,5.97
2022-11-22T04:31:32.972Z,5.79
2022-11-22T04:34:03.038Z,5.55
2022-11-22T04:36:32.665Z,6.16
2022-11-22T04:39:02.212Z,6.48
2022-11-22T04:41:31.865Z,6.88
2022-11-22T04:44:20.685Z,6.46
2022-11-22T04:46:50.110Z,6.92
2022-11-22T04:49:20.276Z,6.95
2022-11-22T04:52:07.241Z,6.68
2022-11-22T04:54:37.000Z,6.22
2022-11-22T04:57:07.221Z,6.49
2022-11-22T04:59:39.260Z,7.05
2022-11-22T05:02:08.955Z,6.48
2022-11-22T05:04:38.581Z,6.37
2022-11-22T05:07:08.270Z,6.58
2022-11-22T05:09:38.000Z,7.07
2022-11-22T05:12:08.151Z,7.07
2022-11-22T05:14:39.276Z,6.84
2022-11-22T05:17:12.932Z,7.02
2022-11-22T05:19:47.893Z,6.88
2022-11-22T05:22:39.067Z,6.93
2022-11-22T05:25:08.053Z,6.95
2022-11-22T05:27:37.830Z,6.77
2022-11-22T05:30:10.345Z,7.03
2022-11-22T05:32:39.845Z,6.97
2022-11-22T05:35:09.902Z,7.16
2022-11-22T05:37:40.276Z,6.23
2022-11-22T05:40:12.463Z,6.62
2022-11-22T05:42:41.990Z,7.22
2022-11-22T05:45:14.665Z,7.01
2022-11-22T05:47:44.650Z,7.33
2022-11-22T05:50:15.397Z,6.58
2022-11-22T05:52:45.095Z,6.69
2022-11-22T05:55:15.126Z,7.00
2022-11-22T05:57:44.996Z,6.56
2022-11-22T06:00:18.938Z,6.09
2022-11-22T06:02:51.006Z,6.41
2022-11-22T06:05:22.721Z,6.48
2022-11-22T06:07:53.246Z,5.91
2022-11-22T06:10:25.150Z,5.96
2022-11-22T06:12:57.127Z,6.16
2022-11-22T06:15:31.087Z,5.66
2022-11-22T06:18:01.594Z,5.80
2022-11-22T06:20:31.546Z,5.95
2022-11-22T06:23:01.942Z,6.03
2022-11-22T06:25:34.063Z,6.09
2022-11-22T06:28:04.324Z,6.83
2022-11-22T06:30:36.278Z,6.20
2022-11-22T06:33:06.145Z,6.64
2022-11-22T06:35:36.526Z,6.46
2022-11-22T06:38:08.072Z,6.12
2022-11-22T06:40:38.553Z,6.92
2022-11-22T06:43:08.779Z,7.03
2022-11-22T06:45:40.606Z,7.10
2022-11-22T06:48:10.878Z,6.72
2022-11-22T06:50:41.035Z,6.95
2022-11-22T06:53:32.372Z,6.88
2022-11-22T06:56:03.547Z,6.88
2022-11-22T06:58:33.889Z,7.09
2022-11-22T07:01:06.729Z,7.21
2022-11-22T07:03:37.785Z,7.28
2022-11-22T07:06:09.852Z,7.22
2022-11-22T07:08:40.404Z,6.83
2022-11-22T07:11:11.788Z,6.84
2022-11-22T07:13:42.301Z,6.91
2022-11-22T07:16:16.105Z,6.65
2022-11-22T07:18:48.996Z,6.90
2022-11-22T07:21:21.420Z,6.47
2022-11-22T07:23:52.889Z,5.87
2022-11-22T07:26:24.224Z,6.22
2022-11-22T07:28:54.095Z,5.99
2022-11-22T07:31:26.637Z,6.35
2022-11-22T07:33:58.964Z,6.95
2022-11-22T07:36:30.591Z,6.32
2022-11-22T07:39:00.769Z,6.45
2022-11-22T07:41:30.781Z,6.65
2022-11-22T07:44:00.791Z,6.62
2022-11-22T07:46:33.447Z,5.87
2022-11-22T07:49:03.820Z,6.57
2022-11-22T07:51:34.395Z,6.68
2022-11-22T07:54:05.051Z,6.47
2022-11-22T07:56:38.530Z,6.65
2022-11-22T07:59:08.384Z,6.68
2022-11-22T08:01:40.884Z,6.19
2022-11-22T08:04:11.512Z,6.27
2022-11-22T08:06:41.588Z,6.57
2022-11-22T08:09:13.206Z,6.63
2022-11-22T08:11:43.921Z,6.49
2022-11-22T08:14:14.110Z,6.35
2022-11-22T08:16:45.383Z,6.54
2022-11-22T08:19:17.760Z,6.58
2022-11-22T08:21:48.137Z,6.91
2022-11-22T08:24:18.535Z,5.85
2022-11-22T08:26:50.485Z,5.96
2022-11-22T08:29:21.795Z,6.06
2022-11-22T08:31:53.479Z,5.89
2022-11-22T08:34:23.915Z,6.03
2022-11-22T08:36:54.825Z,6.88
2022-11-22T08:39:25.010Z,7.19
2022-11-22T08:41:55.135Z,7.01
2022-11-22T08:44:24.895Z,6.68
2022-11-22T08:46:58.041Z,6.36
2022-11-22T08:49:29.485Z,7.21
2022-11-22T08:51:59.680Z,7.02
2022-11-22T08:54:33.570Z,7.00
2022-11-22T08:57:06.394Z,6.75
2022-11-22T08:59:36.448Z,7.23
2022-11-22T09:02:07.961Z,7.39
2022-11-22T09:04:38.200Z,7.50
2022-11-22T09:09:58.660Z,7.67
2022-11-22T09:12:29.349Z,7.11
2022-11-22T09:14:59.197Z,7.29
2022-11-22T09:17:30.316Z,7.18
2022-11-22T09:19:59.970Z,7.04
2022-11-22T09:22:29.976Z,7.29
2022-11-22T09:24:59.800Z,7.26
2022-11-22T09:27:29.297Z,7.25
2022-11-22T09:29:59.045Z,7.50
2022-11-22T09:32:33.664Z,7.65
2022-11-22T09:35:03.875Z,7.43
2022-11-22T09:37:34.186Z,7.13
2022-11-22T09:40:04.250Z,7.39
2022-11-22T09:42:56.498Z,7.43
2022-11-22T09:45:50.948Z,7.24
2022-11-22T09:48:38.469Z,7.66
2022-11-22T09:51:10.821Z,7.27
2022-11-22T09:53:44.692Z,7.35
2022-11-22T09:56:17.167Z,7.31
2022-11-22T09:58:52.343Z,7.38
2022-11-22T10:01:24.605Z,7.56
2022-11-22T10:03:59.571Z,7.85
2022-11-22T10:06:32.955Z,7.97
2022-11-22T10:09:11.514Z,7.71
2022-11-22T10:11:44.629Z,7.40
2022-11-22T10:14:24.402Z,7.75
2022-11-22T10:16:57.089Z,7.94
2022-11-22T10:19:36.009Z,7.36
2022-11-22T10:22:13.219Z,7.16
2022-11-22T10:24:43.214Z,7.19
2022-11-22T10:27:15.417Z,7.90
2022-11-22T10:29:52.314Z,7.92
2022-11-22T10:32:26.668Z,7.52
2022-11-22T10:35:17.370Z,7.89
2022-11-22T10:37:55.744Z,8.03
2022-11-22T10:40:29.605Z,7.96
2022-11-22T10:43:17.947Z,8.08
2022-11-22T10:45:50.681Z,7.59
2022-11-22T10:48:29.842Z,7.79
2022-11-22T10:51:09.039Z,7.93
2022-11-22T10:53:58.874Z,7.86
2022-11-22T10:56:35.855Z,7.67
2022-11-22T10:59:35.738Z,7.65
2022-11-22T11:02:16.860Z,7.88
2022-11-22T11:04:47.145Z,8.07
2022-11-22T11:07:23.277Z,8.31
2022-11-22T11:10:13.049Z,8.02
2022-11-22T11:12:48.176Z,8.25
2022-11-22T11:15:22.594Z,8.21
2022-11-22T11:17:56.615Z,8.36
2022-11-22T11:20:29.180Z,8.36
2022-11-22T11:23:16.761Z,8.45
2022-11-22T11:25:48.348Z,8.40
2022-11-22T11:28:22.094Z,8.25
2022-11-22T11:30:54.331Z,8.21
2022-11-22T11:33:28.857Z,8.30
2022-11-22T11:36:08.252Z,8.48
2022-11-22T11:38:55.596Z,8.26
2022-11-22T11:41:29.584Z,8.14
2022-11-22T11:44:00.855Z,8.63
2022-11-22T11:46:45.407Z,8.59
2022-11-22T11:49:17.638Z,8.65
2022-11-22T11:51:48.656Z,8.36
2022-11-22T11:54:21.955Z,8.38
2022-11-22T11:56:53.656Z,8.58
2022-11-22T11:59:24.954Z,8.94
2022-11-22T12:02:03.374Z,8.61
2022-11-22T12:04:36.659Z,8.36
2022-11-22T12:07:18.216Z,8.35
2022-11-22T12:09:51.274Z,8.57
2022-11-22T12:12:33.520Z,8.62
2022-11-22T12:15:12.106Z,8.68
2022-11-22T12:17:51.355Z,8.88
2022-11-22T12:20:26.702Z,8.86
2022-11-22T12:23:07.566Z,8.64
2022-11-22T12:25:40.754Z,8.18
2022-11-22T12:28:20.127Z,8.15
2022-11-22T12:30:54.096Z,7.89
2022-11-22T12:33:29.304Z,8.41
2022-11-22T12:35:59.566Z,8.24
2022-11-22T12:38:32.994Z,8.34
2022-11-22T12:41:06.408Z,8.21
2022-11-22T12:43:41.026Z,7.80
2022-11-22T12:46:13.846Z,7.93
2022-11-22T12:48:49.177Z,8.04
2022-11-22T12:51:25.896Z,7.84
2022-11-22T12:53:59.810Z,7.70
2022-11-22T12:56:34.147Z,7.82
2022-11-22T12:59:08.330Z,8.23
2022-11-22T13:01:44.927Z,8.27
2022-11-22T13:04:20.090Z,8.33
2022-11-22T13:06:57.971Z,8.41
2022-11-22T13:09:32.212Z,8.25
2022-11-22T13:12:09.882Z,8.14
2022-11-22T13:14:43.687Z,8.50
2022-11-22T13:17:14.719Z,7.84
2022-11-22T13:19:49.370Z,8.06
2022-11-22T13:22:23.349Z,8.10
2022-11-22T13:25:04.271Z,8.18
2022-11-22T13:27:37.565Z,7.94
2022-11-22T13:30:17.845Z,7.80
2022-11-22T13:32:51.276Z,7.67
2022-11-22T13:35:28.120Z,8.12
2022-11-22T13:37:59.932Z,7.84
2022-11-22T13:40:31.711Z,7.59
2022-11-22T13:43:35.170Z,7.69
2022-11-22T13:46:05.600Z,8.19
2022-11-22T13:49:13.206Z,8.06
2022-11-22T13:51:55.342Z,7.98
2022-11-22T13:55:15.289Z,7.95
2022-11-22T13:57:45.527Z,7.89
2022-11-22T14:00:50.247Z,7.97
2022-11-22T14:03:39.483Z,7.86
2022-11-22T14:06:32.812Z,7.82
2022-11-22T14:09:28.923Z,7.77
2022-11-22T14:12:28.641Z,7.84
2022-11-22T14:15:20.926Z,7.72
2022-11-22T14:18:05.562Z,7.74
2022-11-22T14:20:45.246Z,7.82
2022-11-22T14:23:23.326Z,7.55
2022-11-22T14:26:04.890Z,7.69
2022-11-22T14:28:57.700Z,7.84
2022-11-22T14:31:30.371Z,7.68
2022-11-22T14:34:23.351Z,8.14
2022-11-22T14:37:29.855Z,8.03
2022-11-22T14:40:05.813Z,7.73
2022-11-22T14:42:50.360Z,7.60
2022-11-22T14:45:25.926Z,7.93
2022-11-22T14:48:05.841Z,7.67
2022-11-22T14:50:45.684Z,8.04
2022-11-22T14:53:23.148Z,7.96
2022-11-22T14:55:56.298Z,7.85
2022-11-22T14:58:28.372Z,7.93
2022-11-22T15:01:26.582Z,7.92
2022-11-22T15:09:21.467Z,7.58
2022-11-22T15:09:22.564Z,7.84
2022-11-22T15:11:13.490Z,8.09
2022-11-22T15:14:14.522Z,8.34
2022-11-22T15:57:27.687Z,7.64
2022-11-22T16:00:01.339Z,7.63
2022-11-22T16:02:33.301Z,7.54
2022-11-22T16:06:08.155Z,7.27
2022-11-22T16:07:58.378Z,7.29
2022-11-22T16:10:38.253Z,7.83
2022-11-22T16:13:15.502Z,7.83
2022-11-22T16:15:50.346Z,7.68
2022-11-22T16:18:26.473Z,7.59
2022-11-22T16:21:07.461Z,8.11
2022-11-22T16:23:38.985Z,7.86
2022-11-22T16:26:22.068Z,7.55
2022-11-22T16:28:53.470Z,7.58
2022-11-22T16:31:30.350Z,7.45
2022-11-22T16:34:00.806Z,7.76
2022-11-22T16:36:32.266Z,7.85
2022-11-22T16:39:02.842Z,7.88
2022-11-22T16:41:33.715Z,7.71
2022-11-22T16:44:07.795Z,7.73
2022-11-22T16:46:39.476Z,7.42
2022-11-22T16:49:19.008Z,7.76
2022-11-22T16:51:49.901Z,7.71
2022-11-22T16:54:21.847Z,7.26
2022-11-22T16:56:53.067Z,7.39
2022-11-22T16:59:23.544Z,7.46
2022-11-22T17:01:56.101Z,7.52
2022-11-22T17:04:28.100Z,7.59
2022-11-22T17:07:00.006Z,7.71
2022-11-22T17:09:31.519Z,7.50
2022-11-22T17:12:05.254Z,7.61
2022-11-22T17:14:35.200Z,7.73
2022-11-22T17:17:06.799Z,7.60
2022-11-22T17:19:52.746Z,7.48
2022-11-22T17:22:29.160Z,7.54
2022-11-22T17:24:59.140Z,7.46
2022-11-22T17:27:29.994Z,7.39
2022-11-22T17:30:00.147Z,7.26
2022-11-22T17:32:32.400Z,7.27
2022-11-22T17:35:04.183Z,7.30
2022-11-22T17:37:34.244Z,7.11
2022-11-22T17:40:09.898Z,7.31
2022-11-22T17:42:41.520Z,7.39
2022-11-22T17:45:12.065Z,7.46
2022-11-22T17:47:44.579Z,7.50
2022-11-22T17:50:16.834Z,7.36
2022-11-22T17:52:46.929Z,7.34
2022-11-22T17:55:18.414Z,7.10
2022-11-22T17:57:51.673Z,7.02
2022-11-22T18:00:30.001Z,7.22
2022-11-22T18:03:07.883Z,7.68
2022-11-22T18:05:38.912Z,7.57
2022-11-22T18:08:09.280Z,7.59
2022-11-22T18:10:41.116Z,7.64
2022-11-22T18:13:21.300Z,7.67
2022-11-22T18:15:57.356Z,7.84
2022-11-22T18:18:55.629Z,7.91
2022-11-22T18:21:26.446Z,7.81
2022-11-22T18:23:57.725Z,7.58
2022-11-22T18:26:43.797Z,7.39
2022-11-22T18:32:05.075Z,8.04
2022-11-22T18:34:36.584Z,7.99
2022-11-22T18:37:06.640Z,8.08
2022-11-22T18:39:38.978Z,8.18
2022-11-22T18:42:11.841Z,7.97
2022-11-22T18:44:42.103Z,7.67
2022-11-22T18:47:13.971Z,7.80
2022-11-22T18:49:49.707Z,7.55
2022-11-22T18:52:23.345Z,7.84
2022-11-22T18:54:55.317Z,8.01
2022-11-22T18:57:25.630Z,7.89
2022-11-22T18:59:56.369Z,7.66
2022-11-22T19:02:27.904Z,7.52
2022-11-22T19:04:59.390Z,7.36
2022-11-22T19:07:29.215Z,7.12
2022-11-22T19:10:00.385Z,7.05
2022-11-22T19:12:31.184Z,7.52
2022-11-22T19:15:01.525Z,7.44
2022-11-22T19:17:31.046Z,7.74
2022-11-22T19:20:03.161Z,7.29
2022-11-22T19:22:36.120Z,7.47
2022-11-22T19:25:07.441Z,7.79
2022-11-22T19:27:37.825Z,7.80
2022-11-22T19:30:09.175Z,7.91
2022-11-22T19:32:40.059Z,7.91
2022-11-22T19:35:12.291Z,7.39
2022-11-22T19:37:42.281Z,7.75
2022-11-22T19:40:13.085Z,7.73
2022-11-22T19:42:42.646Z,7.61
2022-11-22T19:45:13.126Z,7.54
2022-11-22T19:47:43.220Z,7.73
2022-11-22T19:50:14.447Z,7.65
2022-11-22T19:52:46.834Z,7.32
2022-11-22T19:55:17.585Z,7.55
2022-11-22T19:57:48.345Z,7.69
2022-11-22T20:00:19.240Z,7.81
2022-11-22T20:02:48.766Z,7.88
2022-11-22T20:05:21.896Z,8.15
2022-11-22T20:07:52.205Z,8.27
2022-11-22T20:10:22.013Z,8.10
2022-11-22T20:12:51.845Z,7.95
2022-11-22T20:15:21.635Z,7.65
2022-11-22T20:17:51.826Z,7.59
2022-11-22T20:20:23.104Z,7.49
2022-11-22T20:22:54.207Z,7.64
2022-11-22T20:25:24.602Z,7.70
2022-11-22T20:27:57.267Z,7.32
2022-11-22T20:30:27.153Z,7.23
2022-11-22T20:32:57.421Z,7.55
2022-11-22T20:35:28.830Z,7.38
2022-11-22T20:37:58.155Z,7.37
2022-11-22T20:40:27.995Z,7.26
2022-11-22T20:43:02.555Z,7.51
2022-11-22T20:45:36.789Z,7.82
2022-11-22T20:48:09.672Z,7.65
2022-11-22T20:50:44.847Z,7.66
2022-11-22T20:53:15.871Z,7.69
2022-11-22T20:55:47.667Z,7.75
2022-11-22T20:58:19.035Z,7.94
2022-11-22T21:00:49.104Z,7.46
2022-11-22T21:03:19.711Z,7.97
2022-11-22T21:05:53.577Z,7.89
2022-11-22T21:08:23.912Z,7.69
2022-11-22T21:10:54.016Z,7.86
2022-11-22T21:13:23.631Z,8.12
2022-11-22T21:15:53.651Z,8.12
2022-11-22T21:18:25.842Z,8.13
2022-11-22T21:21:05.422Z,7.99
2022-11-22T21:23:35.501Z,7.93
2022-11-22T21:26:08.076Z,8.03
2022-11-22T21:28:38.920Z,7.67
2022-11-22T21:31:09.981Z,7.79
2022-11-22T21:33:40.801Z,7.47
2022-11-22T21:36:13.022Z,7.65
2022-11-22T21:38:43.497Z,7.89
2022-11-22T21:44:06.901Z,7.66
2022-11-22T21:46:37.221Z,7.64
2022-11-22T21:49:07.150Z,7.60
2022-11-22T21:51:38.453Z,8.03
2022-11-22T21:54:08.669Z,7.51
2022-11-22T21:56:39.041Z,7.75
2022-11-22T21:59:10.500Z,7.91
2022-11-22T22:01:40.480Z,7.78
2022-11-22T22:04:10.530Z,8.19
2022-11-22T22:06:46.059Z,7.56
2022-11-22T22:09:16.295Z,7.97
2022-11-22T22:11:48.155Z,8.16
2022-11-22T22:14:17.920Z,8.16
2022-11-22T22:16:48.110Z,7.53
2022-11-22T22:19:18.200Z,7.73
2022-11-22T22:21:50.222Z,7.82
2022-11-22T22:24:19.875Z,7.76
2022-11-22T22:26:52.086Z,7.99
2022-11-22T22:29:22.836Z,8.08
2022-11-22T22:31:52.492Z,7.73
2022-11-22T22:34:22.328Z,7.91
2022-11-22T22:36:53.726Z,8.01
2022-11-22T22:39:23.246Z,8.14
2022-11-22T22:41:52.855Z,7.93
2022-11-22T22:44:22.580Z,7.73
2022-11-22T22:46:52.374Z,7.83
2022-11-22T22:49:24.450Z,7.81
2022-11-22T22:51:56.733Z,7.57
2022-11-22T22:54:27.935Z,7.33
2022-11-22T22:56:58.041Z,7.69
2022-11-22T22:59:29.669Z,7.82
2022-11-22T23:01:59.716Z,7.84
2022-11-22T23:04:30.007Z,8.09
2022-11-22T23:07:01.225Z,7.93
2022-11-22T23:09:31.053Z,8.12
2022-11-22T23:12:13.253Z,8.13
2022-11-22T23:14:43.515Z,8.13
2022-11-22T23:17:13.626Z,7.78
2022-11-22T23:19:43.586Z,8.16
2022-11-22T23:22:15.123Z,8.04
2022-11-22T23:24:44.971Z,8.10
2022-11-22T23:27:14.671Z,8.18
2022-11-22T23:29:44.405Z,8.16
2022-11-22T23:32:15.731Z,8.19
2022-11-22T23:34:46.166Z,8.24
2022-11-22T23:37:17.788Z,8.01
2022-11-22T23:39:47.717Z,7.82
2022-11-22T23:42:39.473Z,8.07
2022-11-22T23:45:10.926Z,8.20
2022-11-22T23:47:40.629Z,7.99
2022-11-22T23:50:11.199Z,8.12
2022-11-22T23:52:42.197Z,7.89
2022-11-22T23:55:12.321Z,7.82
2022-11-22T23:57:42.684Z,7.89
